sensor_id;sensor_type;location;lat;lon;timestamp;P1;durP1;ratioP1;P2;durP2;ratioP2
35648;SDS011;21768;48.562;13.414;2024-01-15T00:01:06;64.13;;;17.77;;
35648;SDS011;21768;48.562;13.414;2024-01-15T00:03:32;56.75;;;16.13;;
35648;SDS011;21768;48.562;13.414;2024-01-15T00:05:57;51.78;;;17.63;;
35648;SDS011;21768;48.562;13.414;2024-01-15T00:08:22;49.60;;;16.08;;
35648;SDS011;21768;48.562;13.414;2024-01-15T00:10:48;59.00;;;16.85;;
35648;SDS011;21768;48.562;13.414;2024-01-15T00:13:13;56.70;;;17.23;;
35648;SDS011;21768;48.562;13.414;2024-01-15T00:15:38;57.58;;;17.73;;
35648;SDS011;21768;48.562;13.414;2024-01-15T00:18:04;47.35;;;16.67;;
35648;SDS011;21768;48.562;13.414;2024-01-15T00:20:30;45.85;;;16.20;;
35648;SDS011;21768;48.562;13.414;2024-01-15T00:22:55;52.25;;;16.77;;
35648;SDS011;21768;48.562;13.414;2024-01-15T00:25:21;56.20;;;18.42;;
35648;SDS011;21768;48.562;13.414;2024-01-15T00:27:46;54.63;;;17.63;;
35648;SDS011;21768;48.562;13.414;2024-01-15T00:30:11;54.03;;;17.75;;
35648;SDS011;21768;48.562;13.414;2024-01-15T00:32:37;53.72;;;18.23;;
35648;SDS011;21768;48.562;13.414;2024-01-15T00:35:03;50.03;;;18.20;;
35648;SDS011;21768;48.562;13.414;2024-01-15T00:37:28;55.92;;;17.33;;
35648;SDS011;21768;48.562;13.414;2024-01-15T00:39:54;48.75;;;17.92;;
35648;SDS011;21768;48.562;13.414;2024-01-15T00:42:19;54.53;;;18.52;;
35648;SDS011;21768;48.562;13.414;2024-01-15T00:44:44;53.40;;;16.67;;
35648;SDS011;21768;48.562;13.414;2024-01-15T00:47:10;50.40;;;15.75;;
35648;SDS011;21768;48.562;13.414;2024-01-15T00:49:35;48.97;;;16.63;;
35648;SDS011;21768;48.562;13.414;2024-01-15T00:52:00;58.28;;;18.25;;
35648;SDS011;21768;48.562;13.414;2024-01-15T00:54:26;51.17;;;17.17;;
35648;SDS011;21768;48.562;13.414;2024-01-15T00:56:51;52.55;;;16.58;;
35648;SDS011;21768;48.562;13.414;2024-01-15T00:59:17;52.63;;;18.05;;
35648;SDS011;21768;48.562;13.414;2024-01-15T01:01:42;57.38;;;18.60;;
35648;SDS011;21768;48.562;13.414;2024-01-15T01:04:09;56.08;;;17.90;;
35648;SDS011;21768;48.562;13.414;2024-01-15T01:06:34;55.97;;;18.25;;
35648;SDS011;21768;48.562;13.414;2024-01-15T01:09:00;55.53;;;18.95;;
35648;SDS011;21768;48.562;13.414;2024-01-15T01:11:25;53.75;;;18.05;;
35648;SDS011;21768;48.562;13.414;2024-01-15T01:13:51;59.70;;;18.48;;
35648;SDS011;21768;48.562;13.414;2024-01-15T01:16:16;61.78;;;18.70;;
35648;SDS011;21768;48.562;13.414;2024-01-15T01:18:42;54.55;;;17.88;;
35648;SDS011;21768;48.562;13.414;2024-01-15T01:21:07;60.00;;;18.15;;
35648;SDS011;21768;48.562;13.414;2024-01-15T01:23:32;56.58;;;19.77;;
35648;SDS011;21768;48.562;13.414;2024-01-15T01:25:58;58.08;;;18.90;;
35648;SDS011;21768;48.562;13.414;2024-01-15T01:28:23;56.70;;;18.27;;
35648;SDS011;21768;48.562;13.414;2024-01-15T01:30:49;53.10;;;17.48;;
35648;SDS011;21768;48.562;13.414;2024-01-15T01:33:14;51.30;;;18.77;;
35648;SDS011;21768;48.562;13.414;2024-01-15T01:35:39;52.45;;;17.58;;
35648;SDS011;21768;48.562;13.414;2024-01-15T01:38:05;51.45;;;18.88;;
35648;SDS011;21768;48.562;13.414;2024-01-15T01:40:30;53.15;;;17.55;;
35648;SDS011;21768;48.562;13.414;2024-01-15T01:42:55;61.58;;;18.92;;
35648;SDS011;21768;48.562;13.414;2024-01-15T01:45:21;53.60;;;18.17;;
35648;SDS011;21768;48.562;13.414;2024-01-15T01:47:46;46.30;;;17.05;;
35648;SDS011;21768;48.562;13.414;2024-01-15T01:50:12;52.78;;;18.00;;
35648;SDS011;21768;48.562;13.414;2024-01-15T01:52:39;57.55;;;18.30;;
35648;SDS011;21768;48.562;13.414;2024-01-15T01:55:05;51.58;;;16.85;;
35648;SDS011;21768;48.562;13.414;2024-01-15T01:57:32;55.72;;;17.25;;
35648;SDS011;21768;48.562;13.414;2024-01-15T01:59:59;58.28;;;17.35;;
35648;SDS011;21768;48.562;13.414;2024-01-15T02:02:26;56.45;;;18.45;;
35648;SDS011;21768;48.562;13.414;2024-01-15T02:04:51;54.33;;;18.08;;
35648;SDS011;21768;48.562;13.414;2024-01-15T02:07:17;48.47;;;16.33;;
35648;SDS011;21768;48.562;13.414;2024-01-15T02:09:43;49.83;;;15.63;;
35648;SDS011;21768;48.562;13.414;2024-01-15T02:12:09;41.13;;;11.95;;
35648;SDS011;21768;48.562;13.414;2024-01-15T02:14:35;47.15;;;15.57;;
35648;SDS011;21768;48.562;13.414;2024-01-15T02:17:01;49.50;;;17.63;;
35648;SDS011;21768;48.562;13.414;2024-01-15T02:19:26;53.13;;;18.15;;
35648;SDS011;21768;48.562;13.414;2024-01-15T02:21:52;44.22;;;16.23;;
35648;SDS011;21768;48.562;13.414;2024-01-15T02:24:17;47.78;;;16.52;;
35648;SDS011;21768;48.562;13.414;2024-01-15T02:26:42;51.55;;;17.70;;
35648;SDS011;21768;48.562;13.414;2024-01-15T02:29:08;40.53;;;14.45;;
35648;SDS011;21768;48.562;13.414;2024-01-15T02:31:35;47.17;;;15.63;;
35648;SDS011;21768;48.562;13.414;2024-01-15T02:34:01;46.85;;;16.30;;
35648;SDS011;21768;48.562;13.414;2024-01-15T02:36:26;48.70;;;16.63;;
35648;SDS011;21768;48.562;13.414;2024-01-15T02:38:51;45.65;;;17.88;;
35648;SDS011;21768;48.562;13.414;2024-01-15T02:41:17;49.22;;;17.20;;
35648;SDS011;21768;48.562;13.414;2024-01-15T02:43:42;41.20;;;14.57;;
35648;SDS011;21768;48.562;13.414;2024-01-15T02:46:08;49.22;;;16.08;;
35648;SDS011;21768;48.562;13.414;2024-01-15T02:48:33;47.58;;;16.05;;
35648;SDS011;21768;48.562;13.414;2024-01-15T02:51:00;47.97;;;16.65;;
35648;SDS011;21768;48.562;13.414;2024-01-15T02:53:26;40.63;;;15.48;;
35648;SDS011;21768;48.562;13.414;2024-01-15T02:55:51;43.05;;;16.25;;
35648;SDS011;21768;48.562;13.414;2024-01-15T02:58:16;43.85;;;16.10;;
35648;SDS011;21768;48.562;13.414;2024-01-15T03:00:42;43.75;;;15.23;;
35648;SDS011;21768;48.562;13.414;2024-01-15T03:03:07;42.03;;;16.10;;
35648;SDS011;21768;48.562;13.414;2024-01-15T03:05:33;48.22;;;16.60;;
35648;SDS011;21768;48.562;13.414;2024-01-15T03:07:58;50.47;;;18.88;;
35648;SDS011;21768;48.562;13.414;2024-01-15T03:10:24;44.53;;;16.60;;
35648;SDS011;21768;48.562;13.414;2024-01-15T03:12:49;47.00;;;16.83;;
35648;SDS011;21768;48.562;13.414;2024-01-15T03:15:14;51.97;;;17.38;;
35648;SDS011;21768;48.562;13.414;2024-01-15T03:17:41;51.60;;;17.27;;
35648;SDS011;21768;48.562;13.414;2024-01-15T03:20:07;47.03;;;16.45;;
35648;SDS011;21768;48.562;13.414;2024-01-15T03:22:33;42.05;;;16.33;;
35648;SDS011;21768;48.562;13.414;2024-01-15T03:24:58;40.30;;;15.68;;
35648;SDS011;21768;48.562;13.414;2024-01-15T03:27:24;42.80;;;16.00;;
35648;SDS011;21768;48.562;13.414;2024-01-15T03:29:50;42.63;;;16.38;;
35648;SDS011;21768;48.562;13.414;2024-01-15T03:32:16;48.65;;;17.58;;
35648;SDS011;21768;48.562;13.414;2024-01-15T03:34:41;42.83;;;16.05;;
35648;SDS011;21768;48.562;13.414;2024-01-15T03:37:07;43.67;;;15.68;;
35648;SDS011;21768;48.562;13.414;2024-01-15T03:39:32;48.28;;;16.58;;
35648;SDS011;21768;48.562;13.414;2024-01-15T03:41:57;51.75;;;17.15;;
35648;SDS011;21768;48.562;13.414;2024-01-15T03:44:23;48.97;;;16.83;;
35648;SDS011;21768;48.562;13.414;2024-01-15T03:46:48;40.42;;;15.02;;
35648;SDS011;21768;48.562;13.414;2024-01-15T03:49:13;49.58;;;16.20;;
35648;SDS011;21768;48.562;13.414;2024-01-15T03:51:39;53.70;;;17.55;;
35648;SDS011;21768;48.562;13.414;2024-01-15T03:54:04;47.33;;;16.05;;
35648;SDS011;21768;48.562;13.414;2024-01-15T03:56:29;51.22;;;16.60;;
35648;SDS011;21768;48.562;13.414;2024-01-15T03:58:55;41.45;;;15.68;;
35648;SDS011;21768;48.562;13.414;2024-01-15T04:01:20;51.05;;;16.77;;
35648;SDS011;21768;48.562;13.414;2024-01-15T04:03:46;43.88;;;15.85;;
35648;SDS011;21768;48.562;13.414;2024-01-15T04:06:11;40.83;;;15.07;;
35648;SDS011;21768;48.562;13.414;2024-01-15T04:08:36;47.13;;;16.33;;
35648;SDS011;21768;48.562;13.414;2024-01-15T04:11:02;47.72;;;16.80;;
35648;SDS011;21768;48.562;13.414;2024-01-15T04:13:27;49.10;;;16.67;;
35648;SDS011;21768;48.562;13.414;2024-01-15T04:15:52;47.20;;;17.35;;
35648;SDS011;21768;48.562;13.414;2024-01-15T04:18:18;47.15;;;15.60;;
35648;SDS011;21768;48.562;13.414;2024-01-15T04:20:43;54.28;;;18.05;;
35648;SDS011;21768;48.562;13.414;2024-01-15T04:23:09;45.60;;;16.48;;
35648;SDS011;21768;48.562;13.414;2024-01-15T04:25:34;48.28;;;17.20;;
35648;SDS011;21768;48.562;13.414;2024-01-15T04:28:00;46.25;;;15.75;;
35648;SDS011;21768;48.562;13.414;2024-01-15T04:30:25;47.72;;;16.13;;
35648;SDS011;21768;48.562;13.414;2024-01-15T04:32:51;47.22;;;16.08;;
35648;SDS011;21768;48.562;13.414;2024-01-15T04:38:38;41.72;;;15.30;;
35648;SDS011;21768;48.562;13.414;2024-01-15T04:41:04;45.95;;;15.57;;
35648;SDS011;21768;48.562;13.414;2024-01-15T04:43:29;46.30;;;16.05;;
35648;SDS011;21768;48.562;13.414;2024-01-15T04:45:55;47.05;;;16.23;;
35648;SDS011;21768;48.562;13.414;2024-01-15T04:48:20;47.78;;;16.83;;
35648;SDS011;21768;48.562;13.414;2024-01-15T04:50:47;49.92;;;17.23;;
35648;SDS011;21768;48.562;13.414;2024-01-15T04:53:13;50.05;;;15.73;;
35648;SDS011;21768;48.562;13.414;2024-01-15T04:55:39;53.25;;;16.08;;
35648;SDS011;21768;48.562;13.414;2024-01-15T04:58:04;45.28;;;15.75;;
35648;SDS011;21768;48.562;13.414;2024-01-15T05:00:29;47.85;;;15.40;;
35648;SDS011;21768;48.562;13.414;2024-01-15T05:02:55;42.03;;;14.70;;
35648;SDS011;21768;48.562;13.414;2024-01-15T05:05:21;47.45;;;14.32;;
35648;SDS011;21768;48.562;13.414;2024-01-15T05:07:46;40.45;;;14.63;;
35648;SDS011;21768;48.562;13.414;2024-01-15T05:10:12;42.03;;;14.45;;
35648;SDS011;21768;48.562;13.414;2024-01-15T05:12:37;45.70;;;15.85;;
35648;SDS011;21768;48.562;13.414;2024-01-15T05:15:03;48.92;;;15.00;;
35648;SDS011;21768;48.562;13.414;2024-01-15T05:17:28;40.97;;;14.75;;
35648;SDS011;21768;48.562;13.414;2024-01-15T05:19:54;45.88;;;14.60;;
35648;SDS011;21768;48.562;13.414;2024-01-15T05:22:19;39.40;;;14.27;;
35648;SDS011;21768;48.562;13.414;2024-01-15T05:24:46;45.40;;;15.43;;
35648;SDS011;21768;48.562;13.414;2024-01-15T05:27:11;41.08;;;13.90;;
35648;SDS011;21768;48.562;13.414;2024-01-15T05:29:37;39.35;;;14.60;;
35648;SDS011;21768;48.562;13.414;2024-01-15T05:32:02;39.13;;;14.25;;
35648;SDS011;21768;48.562;13.414;2024-01-15T05:34:27;40.75;;;13.07;;
35648;SDS011;21768;48.562;13.414;2024-01-15T05:36:53;42.72;;;14.38;;
35648;SDS011;21768;48.562;13.414;2024-01-15T05:39:18;41.72;;;13.90;;
35648;SDS011;21768;48.562;13.414;2024-01-15T05:41:44;38.63;;;13.73;;
35648;SDS011;21768;48.562;13.414;2024-01-15T05:44:09;46.75;;;14.15;;
35648;SDS011;21768;48.562;13.414;2024-01-15T05:46:35;39.50;;;13.90;;
35648;SDS011;21768;48.562;13.414;2024-01-15T05:49:01;33.60;;;13.02;;
35648;SDS011;21768;48.562;13.414;2024-01-15T05:51:26;38.42;;;12.88;;
35648;SDS011;21768;48.562;13.414;2024-01-15T05:53:51;42.28;;;13.55;;
35648;SDS011;21768;48.562;13.414;2024-01-15T05:56:17;33.58;;;12.55;;
35648;SDS011;21768;48.562;13.414;2024-01-15T05:58:42;39.60;;;13.23;;
35648;SDS011;21768;48.562;13.414;2024-01-15T06:01:08;43.13;;;13.77;;
35648;SDS011;21768;48.562;13.414;2024-01-15T06:03:33;36.30;;;12.77;;
35648;SDS011;21768;48.562;13.414;2024-01-15T06:05:58;33.47;;;11.90;;
35648;SDS011;21768;48.562;13.414;2024-01-15T06:08:24;35.63;;;13.10;;
35648;SDS011;21768;48.562;13.414;2024-01-15T06:10:51;31.50;;;11.65;;
35648;SDS011;21768;48.562;13.414;2024-01-15T06:13:17;33.67;;;12.32;;
35648;SDS011;21768;48.562;13.414;2024-01-15T06:15:42;36.25;;;12.57;;
35648;SDS011;21768;48.562;13.414;2024-01-15T06:18:07;33.22;;;11.73;;
35648;SDS011;21768;48.562;13.414;2024-01-15T06:20:33;34.42;;;12.05;;
35648;SDS011;21768;48.562;13.414;2024-01-15T06:22:58;32.25;;;11.98;;
35648;SDS011;21768;48.562;13.414;2024-01-15T06:25:23;38.78;;;12.70;;
35648;SDS011;21768;48.562;13.414;2024-01-15T06:27:49;37.08;;;11.38;;
35648;SDS011;21768;48.562;13.414;2024-01-15T06:30:14;34.40;;;11.70;;
35648;SDS011;21768;48.562;13.414;2024-01-15T06:32:40;30.38;;;11.55;;
35648;SDS011;21768;48.562;13.414;2024-01-15T06:35:05;40.20;;;12.13;;
35648;SDS011;21768;48.562;13.414;2024-01-15T06:37:31;35.50;;;12.18;;
35648;SDS011;21768;48.562;13.414;2024-01-15T06:39:57;36.08;;;12.23;;
35648;SDS011;21768;48.562;13.414;2024-01-15T06:42:23;36.00;;;12.43;;
35648;SDS011;21768;48.562;13.414;2024-01-15T06:44:48;36.55;;;12.50;;
35648;SDS011;21768;48.562;13.414;2024-01-15T06:47:14;45.55;;;14.07;;
35648;SDS011;21768;48.562;13.414;2024-01-15T06:49:39;35.15;;;12.07;;
35648;SDS011;21768;48.562;13.414;2024-01-15T06:52:05;41.03;;;13.57;;
35648;SDS011;21768;48.562;13.414;2024-01-15T06:54:31;37.25;;;13.75;;
35648;SDS011;21768;48.562;13.414;2024-01-15T06:56:56;34.38;;;11.90;;
35648;SDS011;21768;48.562;13.414;2024-01-15T06:59:22;111.03;;;42.65;;
35648;SDS011;21768;48.562;13.414;2024-01-15T07:01:47;106.65;;;38.05;;
35648;SDS011;21768;48.562;13.414;2024-01-15T07:04:12;39.33;;;12.95;;
35648;SDS011;21768;48.562;13.414;2024-01-15T07:06:38;41.47;;;14.40;;
35648;SDS011;21768;48.562;13.414;2024-01-15T07:09:03;38.45;;;13.27;;
35648;SDS011;21768;48.562;13.414;2024-01-15T07:11:29;36.90;;;13.00;;
35648;SDS011;21768;48.562;13.414;2024-01-15T07:13:54;40.90;;;13.27;;
35648;SDS011;21768;48.562;13.414;2024-01-15T07:16:19;31.35;;;11.32;;
35648;SDS011;21768;48.562;13.414;2024-01-15T07:18:45;26.75;;;10.65;;
35648;SDS011;21768;48.562;13.414;2024-01-15T07:21:10;28.70;;;11.05;;
35648;SDS011;21768;48.562;13.414;2024-01-15T07:23:36;34.60;;;11.15;;
35648;SDS011;21768;48.562;13.414;2024-01-15T07:26:01;27.42;;;10.77;;
35648;SDS011;21768;48.562;13.414;2024-01-15T07:28:30;32.13;;;11.02;;
35648;SDS011;21768;48.562;13.414;2024-01-15T07:30:55;28.23;;;11.25;;
35648;SDS011;21768;48.562;13.414;2024-01-15T07:33:21;32.92;;;10.68;;
35648;SDS011;21768;48.562;13.414;2024-01-15T07:35:46;29.23;;;9.98;;
35648;SDS011;21768;48.562;13.414;2024-01-15T07:38:11;25.85;;;9.43;;
35648;SDS011;21768;48.562;13.414;2024-01-15T07:40:37;37.35;;;10.10;;
35648;SDS011;21768;48.562;13.414;2024-01-15T07:43:02;30.42;;;10.00;;
35648;SDS011;21768;48.562;13.414;2024-01-15T07:45:28;25.75;;;9.20;;
35648;SDS011;21768;48.562;13.414;2024-01-15T07:47:53;29.75;;;10.57;;
35648;SDS011;21768;48.562;13.414;2024-01-15T07:50:19;25.50;;;9.55;;
35648;SDS011;21768;48.562;13.414;2024-01-15T07:52:44;32.80;;;10.13;;
35648;SDS011;21768;48.562;13.414;2024-01-15T07:55:10;25.98;;;9.15;;
35648;SDS011;21768;48.562;13.414;2024-01-15T07:57:35;24.90;;;9.30;;
35648;SDS011;21768;48.562;13.414;2024-01-15T08:00:01;24.80;;;9.48;;
35648;SDS011;21768;48.562;13.414;2024-01-15T08:02:29;29.02;;;9.38;;
35648;SDS011;21768;48.562;13.414;2024-01-15T08:04:54;21.73;;;9.00;;
35648;SDS011;21768;48.562;13.414;2024-01-15T08:07:19;25.65;;;9.75;;
35648;SDS011;21768;48.562;13.414;2024-01-15T08:09:45;24.40;;;9.63;;
35648;SDS011;21768;48.562;13.414;2024-01-15T08:12:12;24.23;;;8.45;;
35648;SDS011;21768;48.562;13.414;2024-01-15T08:14:38;23.38;;;8.88;;
35648;SDS011;21768;48.562;13.414;2024-01-15T08:17:03;27.27;;;8.45;;
35648;SDS011;21768;48.562;13.414;2024-01-15T08:19:29;24.00;;;9.00;;
35648;SDS011;21768;48.562;13.414;2024-01-15T08:21:54;22.15;;;8.43;;
35648;SDS011;21768;48.562;13.414;2024-01-15T08:24:20;27.05;;;9.48;;
35648;SDS011;21768;48.562;13.414;2024-01-15T08:26:45;27.10;;;8.63;;
35648;SDS011;21768;48.562;13.414;2024-01-15T08:29:10;24.73;;;8.98;;
35648;SDS011;21768;48.562;13.414;2024-01-15T08:31:36;26.13;;;10.93;;
35648;SDS011;21768;48.562;13.414;2024-01-15T08:34:01;39.47;;;13.27;;
35648;SDS011;21768;48.562;13.414;2024-01-15T08:36:27;29.52;;;9.20;;
35648;SDS011;21768;48.562;13.414;2024-01-15T08:38:54;24.65;;;9.20;;
35648;SDS011;21768;48.562;13.414;2024-01-15T08:41:20;22.80;;;8.85;;
35648;SDS011;21768;48.562;13.414;2024-01-15T08:43:45;22.38;;;9.35;;
35648;SDS011;21768;48.562;13.414;2024-01-15T08:46:10;25.90;;;11.25;;
35648;SDS011;21768;48.562;13.414;2024-01-15T08:48:36;21.67;;;8.80;;
35648;SDS011;21768;48.562;13.414;2024-01-15T08:51:01;23.20;;;7.70;;
35648;SDS011;21768;48.562;13.414;2024-01-15T08:53:27;18.15;;;7.90;;
35648;SDS011;21768;48.562;13.414;2024-01-15T08:55:53;20.92;;;8.63;;
35648;SDS011;21768;48.562;13.414;2024-01-15T08:58:18;25.58;;;8.20;;
35648;SDS011;21768;48.562;13.414;2024-01-15T09:00:43;23.25;;;7.80;;
35648;SDS011;21768;48.562;13.414;2024-01-15T09:03:09;16.27;;;6.65;;
35648;SDS011;21768;48.562;13.414;2024-01-15T09:05:35;19.52;;;8.95;;
35648;SDS011;21768;48.562;13.414;2024-01-15T09:08:00;18.52;;;8.43;;
35648;SDS011;21768;48.562;13.414;2024-01-15T09:10:26;18.52;;;7.13;;
35648;SDS011;21768;48.562;13.414;2024-01-15T09:12:51;18.10;;;7.15;;
35648;SDS011;21768;48.562;13.414;2024-01-15T09:15:16;19.23;;;7.07;;
35648;SDS011;21768;48.562;13.414;2024-01-15T09:17:42;25.35;;;7.15;;
35648;SDS011;21768;48.562;13.414;2024-01-15T09:20:08;18.02;;;6.32;;
35648;SDS011;21768;48.562;13.414;2024-01-15T09:22:34;16.23;;;7.00;;
35648;SDS011;21768;48.562;13.414;2024-01-15T09:25:00;14.70;;;6.57;;
35648;SDS011;21768;48.562;13.414;2024-01-15T09:27:25;16.13;;;6.63;;
35648;SDS011;21768;48.562;13.414;2024-01-15T09:29:51;16.92;;;6.60;;
35648;SDS011;21768;48.562;13.414;2024-01-15T09:32:17;14.88;;;6.07;;
35648;SDS011;21768;48.562;13.414;2024-01-15T09:34:43;14.50;;;5.93;;
35648;SDS011;21768;48.562;13.414;2024-01-15T09:37:08;14.68;;;6.43;;
35648;SDS011;21768;48.562;13.414;2024-01-15T09:39:34;15.25;;;6.50;;
35648;SDS011;21768;48.562;13.414;2024-01-15T09:41:59;16.08;;;6.43;;
35648;SDS011;21768;48.562;13.414;2024-01-15T09:44:25;13.02;;;5.70;;
35648;SDS011;21768;48.562;13.414;2024-01-15T09:46:52;15.32;;;6.28;;
35648;SDS011;21768;48.562;13.414;2024-01-15T09:49:18;14.27;;;5.68;;
35648;SDS011;21768;48.562;13.414;2024-01-15T09:51:44;13.10;;;5.63;;
35648;SDS011;21768;48.562;13.414;2024-01-15T09:54:10;16.70;;;5.85;;
35648;SDS011;21768;48.562;13.414;2024-01-15T09:56:41;13.80;;;6.07;;
35648;SDS011;21768;48.562;13.414;2024-01-15T09:59:10;13.63;;;5.75;;
35648;SDS011;21768;48.562;13.414;2024-01-15T10:01:36;15.18;;;6.10;;
35648;SDS011;21768;48.562;13.414;2024-01-15T10:04:05;12.95;;;5.90;;
35648;SDS011;21768;48.562;13.414;2024-01-15T10:06:30;13.52;;;5.05;;
35648;SDS011;21768;48.562;13.414;2024-01-15T10:08:57;8.70;;;5.15;;
35648;SDS011;21768;48.562;13.414;2024-01-15T10:11:25;11.35;;;5.13;;
35648;SDS011;21768;48.562;13.414;2024-01-15T10:13:51;12.95;;;5.80;;
35648;SDS011;21768;48.562;13.414;2024-01-15T10:16:18;10.48;;;5.00;;
35648;SDS011;21768;48.562;13.414;2024-01-15T10:18:44;9.98;;;5.22;;
35648;SDS011;21768;48.562;13.414;2024-01-15T10:21:10;11.20;;;4.78;;
35648;SDS011;21768;48.562;13.414;2024-01-15T10:23:35;9.00;;;4.65;;
35648;SDS011;21768;48.562;13.414;2024-01-15T10:26:01;10.02;;;4.47;;
35648;SDS011;21768;48.562;13.414;2024-01-15T10:28:27;10.25;;;4.47;;
35648;SDS011;21768;48.562;13.414;2024-01-15T10:30:56;12.63;;;4.85;;
35648;SDS011;21768;48.562;13.414;2024-01-15T10:33:22;14.65;;;5.18;;
35648;SDS011;21768;48.562;13.414;2024-01-15T10:35:54;13.95;;;6.40;;
35648;SDS011;21768;48.562;13.414;2024-01-15T10:38:21;34.25;;;12.38;;
35648;SDS011;21768;48.562;13.414;2024-01-15T10:40:48;15.10;;;5.55;;
35648;SDS011;21768;48.562;13.414;2024-01-15T10:43:16;8.23;;;4.07;;
35648;SDS011;21768;48.562;13.414;2024-01-15T10:45:43;12.70;;;4.70;;
35648;SDS011;21768;48.562;13.414;2024-01-15T10:48:13;16.55;;;8.75;;
35648;SDS011;21768;48.562;13.414;2024-01-15T10:50:39;11.43;;;5.28;;
35648;SDS011;21768;48.562;13.414;2024-01-15T10:53:04;17.83;;;6.72;;
35648;SDS011;21768;48.562;13.414;2024-01-15T10:55:30;12.40;;;5.10;;
35648;SDS011;21768;48.562;13.414;2024-01-15T10:57:57;12.15;;;5.15;;
35648;SDS011;21768;48.562;13.414;2024-01-15T11:00:24;10.02;;;4.65;;
35648;SDS011;21768;48.562;13.414;2024-01-15T11:02:50;11.07;;;4.18;;
35648;SDS011;21768;48.562;13.414;2024-01-15T11:05:16;8.73;;;4.05;;
35648;SDS011;21768;48.562;13.414;2024-01-15T11:07:43;15.15;;;4.50;;
35648;SDS011;21768;48.562;13.414;2024-01-15T11:10:35;11.68;;;4.20;;
35648;SDS011;21768;48.562;13.414;2024-01-15T11:13:13;9.63;;;4.18;;
35648;SDS011;21768;48.562;13.414;2024-01-15T11:18:29;7.47;;;4.00;;
35648;SDS011;21768;48.562;13.414;2024-01-15T11:29:07;10.25;;;4.82;;
35648;SDS011;21768;48.562;13.414;2024-01-15T11:34:05;23.75;;;6.85;;
35648;SDS011;21768;48.562;13.414;2024-01-15T11:42:00;15.05;;;6.18;;
35648;SDS011;21768;48.562;13.414;2024-01-15T11:44:28;12.77;;;5.30;;
35648;SDS011;21768;48.562;13.414;2024-01-15T11:50:07;10.18;;;5.45;;
35648;SDS011;21768;48.562;13.414;2024-01-15T11:52:37;10.50;;;3.65;;
35648;SDS011;21768;48.562;13.414;2024-01-15T12:00:10;9.60;;;3.80;;
35648;SDS011;21768;48.562;13.414;2024-01-15T12:02:37;7.55;;;3.83;;
35648;SDS011;21768;48.562;13.414;2024-01-15T12:05:09;8.88;;;3.50;;
35648;SDS011;21768;48.562;13.414;2024-01-15T12:07:37;12.98;;;4.13;;
35648;SDS011;21768;48.562;13.414;2024-01-15T12:10:07;9.20;;;4.13;;
35648;SDS011;21768;48.562;13.414;2024-01-15T12:15:29;9.38;;;4.32;;
35648;SDS011;21768;48.562;13.414;2024-01-15T12:17:59;9.30;;;4.03;;
35648;SDS011;21768;48.562;13.414;2024-01-15T12:20:27;9.48;;;4.57;;
35648;SDS011;21768;48.562;13.414;2024-01-15T12:22:56;12.98;;;3.92;;
35648;SDS011;21768;48.562;13.414;2024-01-15T12:25:22;7.85;;;3.88;;
35648;SDS011;21768;48.562;13.414;2024-01-15T12:27:49;9.02;;;3.45;;
35648;SDS011;21768;48.562;13.414;2024-01-15T12:30:14;6.47;;;3.08;;
35648;SDS011;21768;48.562;13.414;2024-01-15T12:32:43;6.50;;;2.88;;
35648;SDS011;21768;48.562;13.414;2024-01-15T12:35:10;10.43;;;3.47;;
35648;SDS011;21768;48.562;13.414;2024-01-15T12:37:37;8.73;;;4.40;;
35648;SDS011;21768;48.562;13.414;2024-01-15T12:40:04;9.10;;;4.05;;
35648;SDS011;21768;48.562;13.414;2024-01-15T12:42:32;8.63;;;4.18;;
35648;SDS011;21768;48.562;13.414;2024-01-15T12:45:01;11.50;;;4.43;;
35648;SDS011;21768;48.562;13.414;2024-01-15T12:47:28;9.85;;;4.07;;
35648;SDS011;21768;48.562;13.414;2024-01-15T12:49:53;10.43;;;4.32;;
35648;SDS011;21768;48.562;13.414;2024-01-15T12:52:19;12.73;;;4.22;;
35648;SDS011;21768;48.562;13.414;2024-01-15T12:54:46;10.65;;;4.53;;
35648;SDS011;21768;48.562;13.414;2024-01-15T12:57:15;10.30;;;4.95;;
35648;SDS011;21768;48.562;13.414;2024-01-15T12:59:41;10.25;;;4.60;;
35648;SDS011;21768;48.562;13.414;2024-01-15T13:02:07;9.40;;;4.20;;
35648;SDS011;21768;48.562;13.414;2024-01-15T13:04:32;12.18;;;4.82;;
35648;SDS011;21768;48.562;13.414;2024-01-15T13:06:58;12.40;;;4.97;;
35648;SDS011;21768;48.562;13.414;2024-01-15T13:09:23;11.68;;;4.78;;
35648;SDS011;21768;48.562;13.414;2024-01-15T13:11:48;13.35;;;4.93;;
35648;SDS011;21768;48.562;13.414;2024-01-15T13:14:14;10.32;;;4.43;;
35648;SDS011;21768;48.562;13.414;2024-01-15T13:16:40;9.07;;;4.20;;
35648;SDS011;21768;48.562;13.414;2024-01-15T13:19:07;9.88;;;3.92;;
35648;SDS011;21768;48.562;13.414;2024-01-15T13:21:39;10.30;;;4.30;;
35648;SDS011;21768;48.562;13.414;2024-01-15T13:24:07;10.50;;;4.03;;
35648;SDS011;21768;48.562;13.414;2024-01-15T13:26:33;9.55;;;3.72;;
35648;SDS011;21768;48.562;13.414;2024-01-15T13:29:05;14.13;;;3.30;;
35648;SDS011;21768;48.562;13.414;2024-01-15T13:31:31;9.57;;;4.35;;
35648;SDS011;21768;48.562;13.414;2024-01-15T13:33:57;9.18;;;3.60;;
35648;SDS011;21768;48.562;13.414;2024-01-15T13:36:23;9.15;;;3.35;;
35648;SDS011;21768;48.562;13.414;2024-01-15T13:38:49;9.48;;;3.67;;
35648;SDS011;21768;48.562;13.414;2024-01-15T13:41:15;10.18;;;3.78;;
35648;SDS011;21768;48.562;13.414;2024-01-15T13:43:41;7.50;;;3.30;;
35648;SDS011;21768;48.562;13.414;2024-01-15T13:46:06;12.15;;;3.60;;
35648;SDS011;21768;48.562;13.414;2024-01-15T13:48:32;8.35;;;3.20;;
35648;SDS011;21768;48.562;13.414;2024-01-15T13:50:57;8.50;;;3.25;;
35648;SDS011;21768;48.562;13.414;2024-01-15T13:53:24;8.18;;;3.10;;
35648;SDS011;21768;48.562;13.414;2024-01-15T13:55:50;7.90;;;3.20;;
35648;SDS011;21768;48.562;13.414;2024-01-15T13:58:15;6.53;;;3.20;;
35648;SDS011;21768;48.562;13.414;2024-01-15T14:00:42;9.85;;;3.30;;
35648;SDS011;21768;48.562;13.414;2024-01-15T14:03:08;6.75;;;3.50;;
35648;SDS011;21768;48.562;13.414;2024-01-15T14:05:33;7.30;;;3.28;;
35648;SDS011;21768;48.562;13.414;2024-01-15T14:07:58;5.57;;;3.15;;
35648;SDS011;21768;48.562;13.414;2024-01-15T14:10:24;8.85;;;3.85;;
35648;SDS011;21768;48.562;13.414;2024-01-15T14:12:49;7.28;;;3.47;;
35648;SDS011;21768;48.562;13.414;2024-01-15T14:15:14;8.55;;;3.75;;
35648;SDS011;21768;48.562;13.414;2024-01-15T14:17:40;9.40;;;3.88;;
35648;SDS011;21768;48.562;13.414;2024-01-15T14:20:06;12.88;;;3.88;;
35648;SDS011;21768;48.562;13.414;2024-01-15T14:22:31;7.97;;;3.45;;
35648;SDS011;21768;48.562;13.414;2024-01-15T14:24:57;7.55;;;3.50;;
35648;SDS011;21768;48.562;13.414;2024-01-15T14:27:22;8.07;;;3.28;;
35648;SDS011;21768;48.562;13.414;2024-01-15T14:29:47;6.53;;;2.90;;
35648;SDS011;21768;48.562;13.414;2024-01-15T14:32:13;7.95;;;3.42;;
35648;SDS011;21768;48.562;13.414;2024-01-15T14:34:38;9.88;;;3.25;;
35648;SDS011;21768;48.562;13.414;2024-01-15T14:37:03;6.65;;;3.17;;
35648;SDS011;21768;48.562;13.414;2024-01-15T14:39:29;7.07;;;3.15;;
35648;SDS011;21768;48.562;13.414;2024-01-15T14:41:57;7.07;;;3.33;;